Hovedside
METAR-TAF:

METAR-TAF

Lufthavner :

Helsingborg, Sverige

Ängelholm-Helsingborg lufthavn

breddegrad: 56-17-46N, lengdegrad: 012-50-50E, høyde over havet: 21 m

Gjeldene værobservasjon

Denne rapporten ble laget for 24 minutter siden, klokken 05:50 UTC
Flau vind
Temperatur -3°C
Luftfuktighet 86%
Trykk 1029 hPa
Sikt 10 km eller mer
ingen skyer under 1500 m og ingen bygeskyer

METAR: ESTA 240550Z 00000KT CAVOK M03/M05 Q1029

Tid: 07:14 (06:14 UTC)

Varsel

Denne rapporten ble laget for 1 time og 21 minutter siden, klokken 04:53 UTC
Varsel gyldig fra 24. klokken 06 UTC til 24. klokken 15 UTC
Vind 5 kt fra skiftende retning
Sikt 10 km eller mer
Få skyer i en høyde av 4000 ft
Midlertidig
fra 24. klokken 06 UTC til 24. klokken 07 UTC
Sikt: 1200 m
tåkebanker

TAF: ESTA 240453Z 2406/2415 VRB05KT 9999 FEW040 TEMPO 2406/2407 1200 BCFG

Værobservasjoner og værvarsel for over 4000 flyplasser (METAR- og TAF-rapporter).

Tilgjengelige stasjoner er representert av de røde og gule prikkene på kartet.

Hold musepekeren over prikken for å se navnet på stasjonen.

Klikk så for å se værobservasjoner og -varsler.

For å forandre kartet kan du klikke på den grønne knappen med svart kryss for å zoome inn, på den grønne knappen med strek for å zoome ut, eller på de grønne pilene for å se tilstøtende kart.


METAR-TAF: